Terminal Aerodrome Forecast
Issued by NWS Bismarck, ND

Home | Current Version | Previous Version | Graphics & Text | Print | Product List | Glossary On
Versions: 1 2 3 4 5 6 7 8 9 10 11 12 13 14 15 16
000
FTUS43 KBIS 191100
TAFISN
TAF
KISN 191120Z 1912/2012 00000KT P6SM SCT150
     FM191500 16009KT P6SM SCT150
     FM192100 20013KT P6SM SCT060
     FM200900 27009KT P6SM SCT060=

USA.gov is the U.S. government's official web portal to all federal, state and local government web resources and services.